Time;durP1;ratioP1;P1;durP2;ratioP2;P2;SDS_P1;SDS_P2;PMS_P1;PMS_P2;Temp;Humidity;BMP_temperature;BMP_pressure;BME280_temperature;BME280_humidity;BME280_pressure;Samples;Min_cycle;Max_cycle;Signal;HPM_P1;HPM_P2
2023/08/22 00:00:39;;;;;;;3.65;3.45;;;;;;;24.66;nan;100838.78;4984664;28;20023;-76
2023/08/22 00:03:05;;;;;;;3.40;3.15;;;;;;;24.66;nan;100835.28;4992387;28;20117;-75
2023/08/22 00:05:30;;;;;;;3.00;2.80;;;;;;;24.66;nan;100838.78;4994866;28;20164;-76
2023/08/22 00:07:55;;;;;;;3.30;3.08;;;;;;;24.65;nan;100834.44;4967767;28;20040;-76
2023/08/22 00:10:21;;;;;;;3.30;3.10;;;;;;;24.66;nan;100835.28;4983734;28;20038;-76
2023/08/22 00:12:46;;;;;;;3.40;3.20;;;;;;;24.66;nan;100841.44;4981611;28;20042;-76
2023/08/22 00:15:12;;;;;;;3.47;3.22;;;;;;;24.66;nan;100832.63;4962066;28;20026;-76
2023/08/22 00:17:41;;;;;;;3.22;3.03;;;;;;;24.65;nan;100831.78;4984249;28;20034;-75
2023/08/22 00:20:11;;;;;;;3.25;3.05;;;;;;;24.66;nan;100832.63;4983434;28;20033;-76
2023/08/22 00:22:37;;;;;;;3.33;3.13;;;;;;;24.65;nan;100821.19;4983341;28;20077;-76
2023/08/22 00:25:04;;;;;;;3.42;3.22;;;;;;;24.66;nan;100827.31;4979498;28;20026;-76
2023/08/22 00:27:29;;;;;;;3.20;3.00;;;;;;;24.66;nan;100827.31;4983120;28;20073;-76
2023/08/22 00:29:56;;;;;;;3.20;3.00;;;;;;;24.65;nan;100826.47;4982891;28;20051;-76
2023/08/22 00:32:22;;;;;;;3.10;2.90;;;;;;;24.66;nan;100825.50;4987382;28;20154;-75
2023/08/22 00:34:47;;;;;;;3.85;3.55;;;;;;;24.67;nan;100826.34;4996925;28;20021;-75
2023/08/22 00:37:12;;;;;;;3.60;3.30;;;;;;;24.66;nan;100828.16;4986474;28;20951;-76
2023/08/22 00:39:38;;;;;;;3.72;3.42;;;;;;;24.67;nan;100823.69;4984530;28;20577;-75
2023/08/22 00:42:03;;;;;;;3.50;3.20;;;;;;;24.66;nan;100824.66;4983284;28;20033;-76
2023/08/22 00:44:28;;;;;;;3.63;3.33;;;;;;;24.66;nan;100827.31;4979859;28;20045;-75
2023/08/22 00:46:54;;;;;;;3.63;3.33;;;;;;;24.67;nan;100829.00;4983509;28;20026;-75
2023/08/22 00:49:20;;;;;;;3.50;3.30;;;;;;;24.67;nan;100831.66;4984246;28;20054;-76
2023/08/22 00:51:45;;;;;;;3.15;2.95;;;;;;;24.66;nan;100833.47;4985341;28;20034;-76
2023/08/22 00:54:11;;;;;;;3.00;2.80;;;;;;;24.66;nan;100837.94;4979695;28;20040;-76
2023/08/22 00:56:36;;;;;;;3.17;2.97;;;;;;;24.66;nan;100832.63;4984391;28;20124;-77
2023/08/22 00:59:03;;;;;;;3.33;3.13;;;;;;;24.66;nan;100833.47;4984557;28;20120;-77
2023/08/22 01:01:29;;;;;;;3.65;3.35;;;;;;;24.66;nan;100824.66;4983668;28;20034;-76
2023/08/22 01:03:55;;;;;;;3.50;3.20;;;;;;;24.66;nan;100824.66;4996743;28;20069;-76
2023/08/22 01:06:28;;;;;;;3.30;3.10;;;;;;;24.66;nan;100822.00;4990757;28;20029;-77
2023/08/22 01:09:05;;;;;;;3.63;3.33;;;;;;;24.66;nan;100822.00;4984385;28;20030;-76
2023/08/22 01:11:38;;;;;;;3.38;3.08;;;;;;;24.66;nan;100822.00;4984207;28;20096;-76
2023/08/22 01:14:04;;;;;;;3.53;3.22;;;;;;;24.65;nan;100818.53;4979167;28;20034;-78
2023/08/22 01:16:30;;;;;;;3.30;3.10;;;;;;;24.66;nan;100816.69;4987793;28;20065;-76
2023/08/22 01:18:56;;;;;;;3.47;3.20;;;;;;;24.66;nan;100817.53;4984547;28;20431;-77
2023/08/22 01:21:22;;;;;;;3.25;3.05;;;;;;;24.66;nan;100816.69;4985248;28;20033;-77
2023/08/22 01:23:48;;;;;;;3.17;2.97;;;;;;;24.66;nan;100819.38;4996093;28;20045;-76
2023/08/22 01:26:14;;;;;;;3.00;2.80;;;;;;;24.66;nan;100814.06;4991941;28;20127;-76
2023/08/22 01:28:46;;;;;;;3.40;3.10;;;;;;;24.66;nan;100816.69;4983913;28;20065;-76
2023/08/22 01:31:36;;;;;;;3.47;3.17;;;;;;;24.65;nan;100810.56;4983053;28;20941;-77
2023/08/22 01:34:20;;;;;;;3.45;3.25;;;;;;;24.66;nan;100812.22;4995638;28;20065;-77
2023/08/22 01:36:46;;;;;;;3.55;3.30;;;;;;;24.67;nan;100818.38;4980504;28;20145;-75
2023/08/22 01:39:14;;;;;;;3.60;3.30;;;;;;;24.67;nan;100818.38;4982829;28;20037;-76
2023/08/22 01:41:39;;;;;;;3.58;3.30;;;;;;;24.65;nan;100810.56;4982464;28;20037;-77
2023/08/22 01:44:05;;;;;;;3.20;3.00;;;;;;;24.65;nan;100815.88;4987466;28;20086;-77
2023/08/22 01:46:30;;;;;;;3.42;3.15;;;;;;;24.67;nan;100815.72;4979275;28;20034;-77
2023/08/22 01:48:56;;;;;;;3.30;3.10;;;;;;;24.66;nan;100811.41;4982312;28;20034;-77
2023/08/22 01:51:21;;;;;;;3.20;3.00;;;;;;;24.66;nan;100816.69;4982362;28;20034;-76
2023/08/22 01:53:46;;;;;;;3.15;2.85;;;;;;;24.66;nan;100816.69;4977604;28;20045;-77
2023/08/22 01:56:12;;;;;;;3.08;2.88;;;;;;;24.67;nan;100815.72;4978752;28;20034;-76
2023/08/22 01:58:37;;;;;;;3.30;3.10;;;;;;;24.65;nan;100810.56;4983374;28;20054;-76
2023/08/22 02:01:09;;;;;;;3.22;3.03;;;;;;;24.66;nan;100811.41;4983334;28;20110;-76
2023/08/22 02:03:35;;;;;;;3.40;3.20;;;;;;;24.66;nan;100819.38;4992462;28;20434;-76
2023/08/22 02:06:00;;;;;;;3.30;3.10;;;;;;;24.66;nan;100806.09;4992302;28;20061;-77
2023/08/22 02:08:25;;;;;;;3.40;3.20;;;;;;;24.65;nan;100799.94;4984182;28;20034;-77
2023/08/22 02:10:51;;;;;;;3.78;3.58;;;;;;;24.66;nan;100800.78;4982534;28;20093;-77
2023/08/22 02:13:16;;;;;;;2.90;2.70;;;;;;;24.65;nan;100793.78;4984250;28;20029;-75
2023/08/22 02:15:41;;;;;;;3.00;2.80;;;;;;;24.66;nan;100795.47;4982852;28;20042;-76
2023/08/22 02:21:29;;;;;;;2.97;2.78;;;;;;;24.65;nan;100793.78;4984268;28;20389;-77
2023/08/22 02:23:55;;;;;;;3.20;3.00;;;;;;;24.66;nan;100784.84;4978081;28;20771;-76
2023/08/22 02:26:20;;;;;;;3.08;2.88;;;;;;;24.65;nan;100781.34;4980340;28;20078;-76
2023/08/22 02:28:46;;;;;;;2.95;2.75;;;;;;;24.65;nan;100777.84;4983765;28;20041;-76
2023/08/22 02:31:11;;;;;;;3.10;2.90;;;;;;;24.66;nan;100775.06;4982902;28;20057;-76
2023/08/22 02:33:36;;;;;;;3.28;3.08;;;;;;;24.66;nan;100785.69;4979256;28;20030;-76
2023/08/22 02:36:02;;;;;;;2.83;2.63;;;;;;;24.66;nan;100780.38;4981131;28;20034;-77
2023/08/22 02:38:27;;;;;;;2.95;2.75;;;;;;;24.66;nan;100782.19;4983911;28;20026;-77
2023/08/22 02:40:53;;;;;;;3.50;3.20;;;;;;;24.66;nan;100784.84;4982211;28;20026;-76
2023/08/22 02:43:18;;;;;;;3.10;2.90;;;;;;;24.66;nan;100784.84;4990899;28;20022;-77
2023/08/22 02:45:45;;;;;;;2.80;2.60;;;;;;;24.66;nan;100795.47;4991725;28;20038;-77
2023/08/22 02:48:10;;;;;;;3.22;3.03;;;;;;;24.67;nan;100794.50;4982012;28;20057;-76
2023/08/22 02:50:36;;;;;;;3.63;3.33;;;;;;;24.65;nan;100791.97;4982316;28;20032;-76
2023/08/22 02:53:02;;;;;;;3.40;3.20;;;;;;;24.66;nan;100798.13;4988915;28;20030;-76
2023/08/22 02:55:28;;;;;;;3.05;2.85;;;;;;;24.65;nan;100789.31;4993466;28;20066;-76
2023/08/22 02:57:53;;;;;;;3.38;3.17;;;;;;;24.66;nan;100795.47;4984540;28;20026;-77
2023/08/22 03:00:18;;;;;;;3.45;3.20;;;;;;;24.66;nan;100790.16;4986184;28;20030;-77
2023/08/22 03:02:44;;;;;;;3.10;2.90;;;;;;;24.66;nan;100792.81;4967305;28;20037;-76
2023/08/22 03:05:11;;;;;;;3.17;2.97;;;;;;;24.65;nan;100799.09;4997348;28;20144;-77
2023/08/22 03:07:37;;;;;;;2.92;2.65;;;;;;;24.66;nan;100804.28;4987203;28;20033;-76
2023/08/22 03:10:02;;;;;;;3.10;2.90;;;;;;;24.65;nan;100797.28;4986713;28;20112;-76
2023/08/22 03:12:28;;;;;;;3.42;3.22;;;;;;;24.66;nan;100798.97;4990907;28;20033;-75
2023/08/22 03:14:53;;;;;;;3.10;2.90;;;;;;;24.64;nan;100798.25;5000104;28;20022;-76
2023/08/22 03:17:18;;;;;;;3.10;2.90;;;;;;;24.66;nan;100801.63;4986962;28;20049;-76
2023/08/22 03:19:44;;;;;;;2.97;2.78;;;;;;;24.66;nan;100816.69;4987583;28;20045;-76
2023/08/22 03:22:09;;;;;;;3.13;2.92;;;;;;;24.65;nan;100820.34;4988063;28;20526;-76
2023/08/22 03:24:34;;;;;;;2.90;2.70;;;;;;;24.66;nan;100816.69;4985696;28;20420;-76
2023/08/22 03:27:00;;;;;;;2.85;2.65;;;;;;;24.67;nan;100807.75;4984185;28;20065;-76
2023/08/22 03:29:25;;;;;;;3.00;2.80;;;;;;;24.65;nan;100809.72;4984820;28;20050;-76
2023/08/22 03:31:50;;;;;;;3.20;3.00;;;;;;;24.66;nan;100806.09;4982994;28;20104;-76
2023/08/22 03:34:16;;;;;;;3.38;3.10;;;;;;;24.66;nan;100811.41;4989148;28;20029;-76
2023/08/22 03:36:41;;;;;;;3.03;2.83;;;;;;;24.66;nan;100814.06;4990039;28;20033;-77
2023/08/22 03:39:06;;;;;;;2.92;2.72;;;;;;;24.66;nan;100806.09;4983508;28;20023;-77
2023/08/22 03:41:32;;;;;;;3.03;2.83;;;;;;;24.65;nan;100797.28;4984997;28;20735;-77
2023/08/22 03:43:57;;;;;;;3.03;2.83;;;;;;;24.65;nan;100793.78;4978500;28;20423;-77
2023/08/22 03:46:22;;;;;;;3.05;2.85;;;;;;;24.65;nan;100796.44;4982662;28;20030;-76
2023/08/22 03:48:48;;;;;;;2.50;2.40;;;;;;;24.65;nan;100791.13;4985105;28;20030;-77
2023/08/22 03:51:13;;;;;;;2.90;2.70;;;;;;;24.65;nan;100789.31;4985024;28;20106;-77
2023/08/22 03:53:39;;;;;;;2.97;2.78;;;;;;;24.66;nan;100798.13;4992407;28;20262;-77
2023/08/22 03:56:04;;;;;;;3.15;2.92;;;;;;;24.66;nan;100800.78;4980289;28;20084;-77
2023/08/22 03:58:30;;;;;;;3.08;2.88;;;;;;;24.66;nan;100798.13;4985072;28;20715;-77
2023/08/22 04:01:01;;;;;;;3.20;3.00;;;;;;;24.66;nan;100803.44;4984001;28;20080;-77
2023/08/22 04:03:27;;;;;;;2.80;2.60;;;;;;;24.66;nan;100798.13;4978662;28;20556;-77
2023/08/22 04:05:52;;;;;;;3.30;3.10;;;;;;;24.66;nan;100800.78;4985532;28;20034;-77
2023/08/22 04:08:18;;;;;;;3.35;3.10;;;;;;;24.66;nan;100798.97;4982783;28;20064;-76
2023/08/22 04:10:43;;;;;;;3.20;3.00;;;;;;;24.67;nan;100807.75;4985877;28;20103;-76
2023/08/22 04:13:11;;;;;;;3.30;3.10;;;;;;;24.66;nan;100806.09;4979766;28;20026;-76
2023/08/22 04:15:39;;;;;;;3.30;3.10;;;;;;;24.66;nan;100814.88;4985888;28;20030;-76
2023/08/22 04:18:04;;;;;;;2.87;2.67;;;;;;;24.66;nan;100816.69;4983872;28;20784;-77
2023/08/22 04:20:30;;;;;;;3.35;3.15;;;;;;;24.66;nan;100806.09;4983172;28;20038;-77
2023/08/22 04:22:55;;;;;;;3.00;2.80;;;;;;;24.66;nan;100814.06;4981890;28;20026;-77
2023/08/22 04:25:20;;;;;;;3.20;3.00;;;;;;;24.66;nan;100816.69;4995347;28;20036;-76
2023/08/22 04:27:46;;;;;;;2.70;2.50;;;;;;;24.65;nan;100818.53;4983599;28;20444;-77
2023/08/22 04:30:11;;;;;;;2.95;2.75;;;;;;;24.66;nan;100816.69;4983989;28;20026;-77
2023/08/22 04:32:37;;;;;;;2.95;2.75;;;;;;;24.66;nan;100817.53;4982290;28;20034;-77
2023/08/22 04:35:02;;;;;;;3.08;2.88;;;;;;;24.66;nan;100816.69;4985688;28;20538;-77
2023/08/22 04:37:28;;;;;;;3.08;2.88;;;;;;;24.67;nan;100818.38;4983634;28;20037;-76
2023/08/22 04:39:54;;;;;;;2.95;2.75;;;;;;;24.66;nan;100822.00;4984314;28;20034;-77
2023/08/22 04:42:19;;;;;;;3.45;3.15;;;;;;;24.65;nan;100817.69;4983175;28;20027;-77
2023/08/22 04:44:44;;;;;;;3.17;2.97;;;;;;;24.65;nan;100825.66;4985569;28;20060;-77
2023/08/22 04:47:10;;;;;;;3.00;2.80;;;;;;;24.65;nan;100820.34;4983271;28;20133;-77
2023/08/22 04:49:35;;;;;;;3.08;2.88;;;;;;;24.66;nan;100816.69;4983939;28;20691;-77
2023/08/22 04:52:01;;;;;;;3.28;3.08;;;;;;;24.65;nan;100820.34;4982182;28;20101;-76
2023/08/22 04:54:26;;;;;;;3.00;2.80;;;;;;;24.65;nan;100821.19;4985754;28;20029;-77
2023/08/22 04:56:51;;;;;;;3.13;2.92;;;;;;;24.65;nan;100823.00;4986953;28;20022;-77
2023/08/22 04:59:17;;;;;;;2.90;2.70;;;;;;;24.66;nan;100820.19;4982647;28;20038;-77
2023/08/22 05:01:42;;;;;;;3.13;2.92;;;;;;;24.65;nan;100823.84;4982464;28;20109;-76
2023/08/22 05:04:07;;;;;;;2.95;2.75;;;;;;;24.65;nan;100815.88;4976792;28;20105;-76
2023/08/22 05:06:33;;;;;;;2.75;2.55;;;;;;;24.65;nan;100818.53;4964044;28;20037;-77
2023/08/22 05:08:58;;;;;;;2.95;2.75;;;;;;;24.65;nan;100818.53;4983527;28;20029;-77
2023/08/22 05:11:23;;;;;;;2.88;2.67;;;;;;;24.65;nan;100821.19;4983260;28;20133;-77
2023/08/22 05:13:49;;;;;;;3.17;2.97;;;;;;;24.65;nan;100815.03;4991383;28;20030;-76
2023/08/22 05:16:14;;;;;;;3.08;2.88;;;;;;;24.65;nan;100820.34;4979861;28;20042;-76
2023/08/22 05:18:42;;;;;;;2.90;2.70;;;;;;;24.64;nan;100827.47;4982045;28;20037;-75
2023/08/22 05:21:07;;;;;;;2.90;2.70;;;;;;;24.65;nan;100836.28;4983328;28;20834;-76
2023/08/22 05:23:33;;;;;;;3.13;2.92;;;;;;;24.65;nan;100837.09;4994343;28;20034;-77
2023/08/22 05:25:58;;;;;;;3.15;2.95;;;;;;;24.65;nan;100837.09;4983678;28;20136;-76
2023/08/22 05:28:23;;;;;;;2.80;2.65;;;;;;;24.65;nan;100836.28;4984283;28;20030;-76
2023/08/22 05:30:49;;;;;;;3.15;2.95;;;;;;;24.64;nan;100838.09;4986162;28;20068;-76
2023/08/22 05:33:14;;;;;;;2.70;2.50;;;;;;;24.65;nan;100838.91;4980893;28;20058;-75
2023/08/22 05:35:39;;;;;;;2.88;2.72;;;;;;;24.65;nan;100836.28;4990917;28;20190;-76
2023/08/22 05:38:17;;;;;;;3.13;2.92;;;;;;;24.65;nan;100836.28;4984916;28;20129;-76
2023/08/22 05:40:42;;;;;;;2.88;2.67;;;;;;;24.64;nan;100843.41;4984671;28;20075;-76
2023/08/22 05:43:08;;;;;;;3.00;2.80;;;;;;;24.65;nan;100847.72;4993206;28;20181;-75
2023/08/22 05:45:45;;;;;;;2.95;2.75;;;;;;;24.64;nan;100845.22;4993887;28;20072;-76
2023/08/22 05:48:11;;;;;;;3.00;2.80;;;;;;;24.65;nan;100841.56;4982903;28;20034;-76
2023/08/22 05:50:36;;;;;;;2.90;2.70;;;;;;;24.65;nan;100846.88;4983373;28;20220;-77
2023/08/22 05:53:01;;;;;;;2.88;2.70;;;;;;;24.65;nan;100842.41;4980155;28;20133;-76
2023/08/22 05:55:27;;;;;;;2.90;2.70;;;;;;;24.64;nan;100843.41;4979082;28;20065;-76
2023/08/22 05:57:52;;;;;;;3.03;2.83;;;;;;;24.64;nan;100843.41;4983993;28;20958;-75
2023/08/22 06:00:17;;;;;;;2.78;2.58;;;;;;;24.65;nan;100854.84;4983938;28;20092;-76
2023/08/22 06:02:43;;;;;;;3.00;2.80;;;;;;;24.65;nan;100852.19;4989811;28;20087;-76
2023/08/22 06:05:08;;;;;;;2.80;2.60;;;;;;;24.65;nan;100858.34;4996189;28;20073;-75
2023/08/22 06:07:34;;;;;;;2.90;2.70;;;;;;;24.66;nan;100859.19;4984786;28;20072;-76
2023/08/22 06:10:00;;;;;;;2.97;2.78;;;;;;;24.65;nan;100857.50;4983397;28;20039;-76
2023/08/22 06:12:26;;;;;;;2.45;2.35;;;;;;;24.65;nan;100852.19;4984691;28;20041;-76
2023/08/22 06:15:07;;;;;;;2.58;2.45;;;;;;;24.66;nan;100861.84;4990721;28;20038;-76
2023/08/22 06:17:34;;;;;;;2.80;2.60;;;;;;;24.65;nan;100865.47;4983781;28;20082;-76
2023/08/22 06:19:59;;;;;;;2.38;2.28;;;;;;;24.66;nan;100869.81;4981360;28;20049;-77
2023/08/22 06:22:25;;;;;;;2.63;2.53;;;;;;;24.66;nan;100872.47;4983324;28;20073;-76
2023/08/22 06:24:50;;;;;;;3.03;2.83;;;;;;;24.65;nan;100874.28;4977928;28;20088;-74
2023/08/22 06:27:15;;;;;;;3.03;2.83;;;;;;;24.66;nan;100875.13;4982407;28;20050;-76
2023/08/22 06:29:41;;;;;;;2.72;2.63;;;;;;;24.66;nan;100875.13;4981231;28;20710;-76
2023/08/22 06:32:06;;;;;;;2.55;2.42;;;;;;;24.65;nan;100865.47;4979413;28;20450;-76
2023/08/22 06:34:33;;;;;;;2.80;2.60;;;;;;;24.65;nan;100873.44;4976803;28;20030;-76
2023/08/22 06:36:58;;;;;;;2.60;2.40;;;;;;;24.65;nan;100874.28;4980708;28;20034;-76
2023/08/22 06:39:23;;;;;;;2.80;2.60;;;;;;;24.65;nan;100868.97;4981018;28;20065;-74
2023/08/22 06:41:49;;;;;;;2.80;2.60;;;;;;;24.65;nan;100868.97;4984062;28;20196;-76
2023/08/22 06:44:14;;;;;;;2.90;2.70;;;;;;;24.65;nan;100868.97;4996498;28;20026;-76
2023/08/22 06:46:40;;;;;;;2.90;2.70;;;;;;;24.66;nan;100869.81;4985172;28;20087;-76
2023/08/22 06:49:05;;;;;;;2.35;2.25;;;;;;;24.66;nan;100873.31;4983097;28;20041;-76
2023/08/22 06:51:32;;;;;;;2.78;2.58;;;;;;;24.66;nan;100864.50;4982885;28;20147;-76
2023/08/22 06:53:57;;;;;;;3.00;2.80;;;;;;;24.65;nan;100868.13;4985966;28;20030;-75
2023/08/22 06:56:23;;;;;;;3.05;2.85;;;;;;;24.66;nan;100881.25;4980412;28;20034;-76
2023/08/22 06:58:48;;;;;;;2.60;2.50;;;;;;;24.66;nan;100870.66;4982495;28;20489;-75
2023/08/22 07:01:14;;;;;;;3.00;2.80;;;;;;;24.66;nan;100870.66;4981291;28;21322;-76
2023/08/22 07:03:39;;;;;;;2.75;2.58;;;;;;;24.66;nan;100868.00;4979112;28;20545;-76
2023/08/22 07:06:04;;;;;;;2.95;2.75;;;;;;;24.67;nan;100866.16;4981638;28;20119;-76
2023/08/22 07:08:30;;;;;;;2.88;2.67;;;;;;;24.66;nan;100870.66;4983457;28;20034;-76
2023/08/22 07:11:04;;;;;;;2.28;2.17;;;;;;;24.67;nan;100868.81;4982615;28;20029;-76
2023/08/22 07:13:30;;;;;;;3.33;3.13;;;;;;;24.67;nan;100861.69;4975694;28;20091;-76
2023/08/22 07:15:56;;;;;;;2.95;2.75;;;;;;;24.67;nan;100872.31;4990607;28;20592;-75
2023/08/22 07:18:21;;;;;;;2.90;2.70;;;;;;;24.66;nan;100868.00;4982873;28;20029;-76
2023/08/22 07:20:46;;;;;;;2.75;2.55;;;;;;;24.67;nan;100869.66;4982667;28;20981;-75
2023/08/22 07:23:12;;;;;;;2.50;2.40;;;;;;;24.68;nan;100865.22;4981864;28;20026;-74
2023/08/22 07:25:37;;;;;;;2.92;2.72;;;;;;;24.69;nan;100869.56;4989227;28;21191;-76
2023/08/22 07:28:03;;;;;;;2.53;2.42;;;;;;;24.68;nan;100862.56;4983234;28;20928;-75
2023/08/22 07:30:29;;;;;;;3.00;2.80;;;;;;;24.69;nan;100874.88;4982840;28;20197;-76
2023/08/22 07:32:54;;;;;;;2.90;2.70;;;;;;;24.67;nan;100872.31;4983566;28;20026;-76
2023/08/22 07:35:19;;;;;;;2.85;2.65;;;;;;;24.68;nan;100875.84;4976729;28;20022;-77
2023/08/22 07:37:45;;;;;;;2.72;2.53;;;;;;;24.68;nan;100870.53;4983249;28;20096;-77
2023/08/22 07:40:10;;;;;;;2.90;2.70;;;;;;;24.68;nan;100874.03;4981178;28;20036;-76
2023/08/22 07:42:36;;;;;;;2.67;2.47;;;;;;;24.68;nan;100865.22;4987599;28;20040;-76
2023/08/22 07:45:03;;;;;;;2.90;2.70;;;;;;;24.69;nan;100869.56;4999649;28;20052;-75
2023/08/22 07:47:29;;;;;;;2.33;2.22;;;;;;;24.69;nan;100872.22;4986322;28;20030;-76
2023/08/22 07:49:54;;;;;;;2.58;2.47;;;;;;;24.69;nan;100866.91;4985266;28;20040;-76
2023/08/22 07:52:20;;;;;;;2.70;2.60;;;;;;;24.68;nan;100866.06;4988735;28;20026;-76
2023/08/22 07:54:45;;;;;;;2.45;2.35;;;;;;;24.69;nan;100872.22;4992372;28;20026;-76
2023/08/22 07:57:11;;;;;;;2.67;2.47;;;;;;;24.69;nan;100865.09;4987536;28;20104;-76
2023/08/22 07:59:37;;;;;;;2.70;2.50;;;;;;;24.70;nan;100863.28;4986165;28;20062;-75
2023/08/22 08:02:04;;;;;;;2.58;2.47;;;;;;;24.69;nan;100866.91;4986336;28;20022;-77
2023/08/22 08:04:30;;;;;;;2.47;2.38;;;;;;;24.70;nan;100866.75;4994725;28;20033;-76
2023/08/22 08:06:55;;;;;;;2.42;2.22;;;;;;;24.70;nan;100865.94;4988953;28;20026;-77
2023/08/22 08:09:21;;;;;;;3.03;2.83;;;;;;;24.70;nan;100863.28;4986415;28;20140;-77
2023/08/22 08:11:46;;;;;;;2.38;2.28;;;;;;;24.70;nan;100861.44;4986666;28;20026;-76
2023/08/22 08:14:12;;;;;;;2.60;2.50;;;;;;;24.69;nan;100865.09;4985748;28;20030;-77
2023/08/22 08:16:37;;;;;;;2.67;2.47;;;;;;;24.71;nan;100872.91;4982435;28;20028;-76
2023/08/22 08:19:03;;;;;;;2.90;2.70;;;;;;;24.70;nan;100864.09;4967870;28;20033;-76
2023/08/22 08:21:28;;;;;;;2.47;2.38;;;;;;;24.70;nan;100865.94;4982522;28;20033;-76
2023/08/22 08:23:53;;;;;;;2.75;2.58;;;;;;;24.71;nan;100867.59;4993088;28;20542;-75
2023/08/22 08:26:19;;;;;;;2.42;2.33;;;;;;;24.71;nan;100875.56;4984183;28;20053;-75
2023/08/22 08:28:44;;;;;;;2.83;2.63;;;;;;;24.71;nan;100865.78;4984107;28;20038;-76
2023/08/22 08:31:09;;;;;;;2.90;2.70;;;;;;;24.70;nan;100858.78;4982562;28;20053;-76
2023/08/22 08:33:35;;;;;;;2.90;2.70;;;;;;;24.71;nan;100856.97;4994699;28;20030;-76
2023/08/22 08:36:00;;;;;;;2.90;2.70;;;;;;;24.71;nan;100857.81;4991731;28;20044;-75
2023/08/22 08:38:26;;;;;;;2.78;2.58;;;;;;;24.71;nan;100863.13;4984436;28;20030;-75
2023/08/22 08:40:52;;;;;;;2.90;2.70;;;;;;;24.72;nan;100861.31;4984378;28;20561;-76
2023/08/22 08:43:21;;;;;;;2.72;2.53;;;;;;;24.70;nan;100860.63;4979374;28;20034;-75
2023/08/22 08:45:46;;;;;;;;;;;;;;;24.71;nan;100854.31;4981511;28;20808;-76
2023/08/22 08:48:12;;;;;;;2.30;2.20;;;;;;;24.71;nan;100857.81;4982190;28;19928;-76
2023/08/22 08:50:38;;;;;;;2.88;2.67;;;;;;;24.71;nan;100857.81;4983293;28;20034;-76
2023/08/22 08:53:03;;;;;;;2.30;2.20;;;;;;;24.72;nan;100863.97;4983515;28;20034;-76
2023/08/22 08:55:29;;;;;;;2.95;2.75;;;;;;;24.72;nan;100861.31;4980469;28;20034;-76
2023/08/22 08:57:56;;;;;;;2.58;2.47;;;;;;;24.72;nan;100858.66;4984418;28;20621;-76
2023/08/22 09:00:21;;;;;;;2.47;2.38;;;;;;;24.72;nan;100861.31;4984158;28;20030;-76
2023/08/22 09:02:47;;;;;;;3.05;2.85;;;;;;;24.71;nan;100867.59;4988694;28;20497;-75
2023/08/22 09:05:12;;;;;;;2.78;2.58;;;;;;;24.71;nan;100870.25;4996527;28;20121;-76
2023/08/22 09:07:38;;;;;;;2.60;2.40;;;;;;;24.72;nan;100869.28;4983154;28;20029;-76
2023/08/22 09:10:05;;;;;;;2.90;2.70;;;;;;;24.72;nan;100874.59;4982361;28;20120;-76
2023/08/22 09:12:35;;;;;;;2.90;2.70;;;;;;;24.73;nan;100873.59;4987012;28;20030;-76
2023/08/22 09:15:00;;;;;;;2.40;2.30;;;;;;;24.73;nan;100868.31;4997829;28;20061;-76
2023/08/22 09:17:28;;;;;;;2.95;2.75;;;;;;;24.73;nan;100865.66;4972711;28;20402;-76
2023/08/22 09:19:54;;;;;;;2.90;2.70;;;;;;;24.72;nan;100859.50;4982194;28;20087;-76
2023/08/22 09:22:19;;;;;;;2.50;2.30;;;;;;;24.73;nan;100855.88;4981854;28;20034;-76
2023/08/22 09:24:52;;;;;;;2.78;2.58;;;;;;;24.72;nan;100858.66;4982727;28;20472;-76
2023/08/22 09:28:04;;;;;;;2.75;2.58;;;;;;;24.72;nan;100854.19;4980408;28;20999;-74
2023/08/22 09:30:29;;;;;;;3.03;2.83;;;;;;;24.73;nan;100855.03;4985540;28;20038;-76
2023/08/22 09:32:59;;;;;;;2.75;2.55;;;;;;;24.73;nan;100857.69;4990048;28;20057;-75
2023/08/22 09:35:30;;;;;;;2.88;2.67;;;;;;;24.72;nan;100851.53;4993676;28;20030;-74
2023/08/22 09:38:04;;;;;;;2.45;2.35;;;;;;;24.73;nan;100850.59;4984014;28;20026;-76
2023/08/22 09:40:32;;;;;;;2.50;2.40;;;;;;;24.73;nan;100855.03;4983440;28;20117;-76
2023/08/22 09:42:58;;;;;;;2.80;2.60;;;;;;;24.74;nan;100840.81;4979295;28;20072;-76
2023/08/22 09:45:24;;;;;;;3.00;2.80;;;;;;;24.73;nan;100839.97;4976829;28;20058;-76
2023/08/22 09:47:51;;;;;;;2.78;2.58;;;;;;;24.73;nan;100842.63;4983541;28;20036;-76
2023/08/22 09:50:17;;;;;;;2.80;2.70;;;;;;;24.74;nan;100838.97;4983592;28;21168;-76
2023/08/22 09:52:42;;;;;;;2.58;2.42;;;;;;;24.74;nan;100841.63;4979769;28;20770;-77
2023/08/22 09:55:10;;;;;;;2.72;2.53;;;;;;;24.74;nan;100838.16;4983963;28;20030;-77
2023/08/22 09:57:36;;;;;;;2.72;2.53;;;;;;;24.74;nan;100836.31;4981902;28;20053;-76
2023/08/22 10:00:04;;;;;;;2.83;2.67;;;;;;;24.74;nan;100838.97;4983047;28;20036;-76
2023/08/22 10:02:30;;;;;;;2.55;2.35;;;;;;;24.76;nan;100830.88;4971790;28;20030;-76
2023/08/22 10:04:55;;;;;;;2.45;2.35;;;;;;;24.76;nan;100838.84;4982372;28;20034;-76
2023/08/22 10:07:21;;;;;;;2.70;2.60;;;;;;;24.76;nan;100833.53;4982742;28;20725;-77
2023/08/22 10:09:46;;;;;;;2.80;2.60;;;;;;;24.75;nan;100835.34;4983388;28;20034;-77
2023/08/22 10:12:14;;;;;;;2.90;2.70;;;;;;;24.76;nan;100822.91;4981959;28;20121;-76
2023/08/22 10:14:59;;;;;;;2.63;2.53;;;;;;;24.76;nan;100834.38;4977724;28;20038;-77
2023/08/22 10:17:25;;;;;;;2.97;2.78;;;;;;;24.76;nan;100830.88;4981989;28;20680;-76
2023/08/22 10:19:51;;;;;;;2.92;2.72;;;;;;;24.77;nan;100835.22;4983419;28;20056;-76
2023/08/22 10:22:16;;;;;;;3.03;2.83;;;;;;;24.76;nan;100830.88;4984341;28;20805;-76
2023/08/22 10:24:42;;;;;;;2.88;2.72;;;;;;;24.76;nan;100821.09;4995914;28;20146;-76
2023/08/22 10:27:12;;;;;;;2.90;2.70;;;;;;;24.76;nan;100823.75;4983071;28;20092;-76
2023/08/22 10:29:45;;;;;;;2.42;2.33;;;;;;;24.77;nan;100816.63;4981863;28;20033;-76
2023/08/22 10:32:10;;;;;;;3.00;2.80;;;;;;;24.76;nan;100812.28;4981501;28;20034;-77
2023/08/22 10:34:38;;;;;;;3.03;2.83;;;;;;;24.77;nan;100819.28;4991182;28;20662;-76
2023/08/22 10:37:20;;;;;;;2.42;2.30;;;;;;;24.77;nan;100819.28;4986083;28;20343;-77
2023/08/22 10:39:47;;;;;;;2.78;2.58;;;;;;;24.78;nan;100820.94;4982848;28;20034;-76
2023/08/22 10:42:23;;;;;;;2.80;2.60;;;;;;;24.77;nan;100824.59;4980219;28;20026;-76
2023/08/22 10:44:56;;;;;;;2.90;2.70;;;;;;;24.78;nan;100820.94;4981394;28;20068;-76
2023/08/22 10:47:30;;;;;;;2.70;2.50;;;;;;;24.78;nan;100815.63;4982127;28;20513;-75
2023/08/22 10:49:57;;;;;;;2.72;2.60;;;;;;;24.78;nan;100818.28;4983096;28;20030;-76
2023/08/22 10:52:26;;;;;;;2.63;2.42;;;;;;;24.78;nan;100808.50;4981278;28;20467;-76
2023/08/22 10:54:57;;;;;;;2.88;2.67;;;;;;;24.78;nan;100810.31;4977191;28;20034;-77
2023/08/22 10:57:23;;;;;;;2.95;2.75;;;;;;;24.79;nan;100806.72;4981361;28;20038;-75
2023/08/22 10:59:58;;;;;;;2.45;2.35;;;;;;;24.78;nan;100797.88;4980968;28;20058;-76
2023/08/22 11:02:24;;;;;;;2.80;2.60;;;;;;;24.80;nan;100808.41;4981208;28;20038;-76
2023/08/22 11:04:50;;;;;;;2.60;2.42;;;;;;;24.78;nan;100797.88;4992478;28;20072;-76
2023/08/22 11:07:15;;;;;;;2.47;2.38;;;;;;;24.78;nan;100800.53;4983057;28;20745;-75
2023/08/22 11:09:41;;;;;;;2.90;2.67;;;;;;;24.79;nan;100796.09;4981924;28;20113;-77
2023/08/22 11:12:22;;;;;;;2.88;2.67;;;;;;;24.80;nan;100792.47;4985325;28;20267;-76
2023/08/22 11:14:49;;;;;;;2.80;2.60;;;;;;;24.80;nan;100798.63;4989173;28;20030;-76
2023/08/22 11:17:18;;;;;;;2.63;2.47;;;;;;;24.80;nan;100803.94;4981445;28;20058;-76
2023/08/22 11:19:44;;;;;;;2.88;2.67;;;;;;;24.79;nan;100794.28;4985331;28;20026;-77
2023/08/22 11:22:13;;;;;;;3.03;2.83;;;;;;;24.80;nan;100797.78;4985723;28;20046;-78
2023/08/22 11:24:42;;;;;;;3.15;2.95;;;;;;;24.79;nan;100791.63;4980478;28;20109;-75
2023/08/22 11:27:08;;;;;;;2.67;2.58;;;;;;;24.81;nan;100789.66;4968125;28;20050;-77
2023/08/22 11:29:46;;;;;;;2.75;2.55;;;;;;;24.81;nan;100778.22;4986048;28;20465;-76
2023/08/22 11:32:21;;;;;;;2.95;2.75;;;;;;;24.80;nan;100772.06;4990173;28;20045;-75
2023/08/22 11:34:48;;;;;;;2.63;2.33;;;;;;;24.80;nan;100779.19;4986781;28;20030;-76
2023/08/22 11:37:14;;;;;;;2.70;2.50;;;;;;;24.81;nan;100772.91;4985441;28;20030;-76
2023/08/22 11:39:39;;;;;;;3.10;2.90;;;;;;;24.81;nan;100773.75;4986047;28;20037;-76
2023/08/22 11:42:05;;;;;;;2.72;2.60;;;;;;;24.81;nan;100770.25;4989546;28;20374;-74